Time;durP1;ratioP1;P1;durP2;ratioP2;P2;SDS_P1;SDS_P2;PMS_P1;PMS_P2;Temp;Humidity;BMP_temperature;BMP_pressure;BME280_temperature;BME280_humidity;BME280_pressure;Samples;Min_cycle;Max_cycle;Signal;HPM_P1;HPM_P2
2022/09/13 00:00:52;;;;;;;80.18;8.27;;;;;;;10.79;100.00;98174.25;2585185;28;20060;-83
2022/09/13 00:02:18;;;;;;;12.30;6.40;;;;;;;10.78;100.00;98175.16;2585967;28;20142;-87
2022/09/13 00:03:33;;;;;;;9.88;6.30;;;;;;;10.67;100.00;98172.88;2586262;28;20054;-84
2022/09/13 00:04:49;;;;;;;9.63;6.00;;;;;;;10.66;100.00;98172.94;2586306;28;20069;-83
2022/09/13 00:06:14;;;;;;;7.85;6.07;;;;;;;10.58;100.00;98179.25;2586388;28;20050;-84
2022/09/13 00:07:30;;;;;;;9.27;5.60;;;;;;;10.59;100.00;98173.13;2586354;28;20489;-84
2022/09/13 00:08:46;;;;;;;9.57;6.80;;;;;;;10.51;100.00;98171.66;2586109;28;20050;-83
2022/09/13 00:10:02;;;;;;;9.10;5.38;;;;;;;10.39;100.00;98172.88;2586188;28;20111;-86
2022/09/13 00:11:24;;;;;;;17.73;5.85;;;;;;;10.26;100.00;98175.00;2586819;28;20505;-84
2022/09/13 00:12:41;;;;;;;11.43;5.72;;;;;;;10.17;100.00;98169.16;2585878;28;20053;-83
2022/09/13 00:13:58;;;;;;;8.38;5.85;;;;;;;10.03;100.00;98164.34;2586358;28;20054;-87
2022/09/13 00:15:14;;;;;;;9.20;6.18;;;;;;;10.03;100.00;98164.34;2586063;28;20390;-83
2022/09/13 00:16:30;;;;;;;11.52;6.25;;;;;;;10.13;100.00;98164.06;2586692;28;20484;-83
2022/09/13 00:17:46;;;;;;;8.98;5.68;;;;;;;10.11;100.00;98161.50;2586265;28;20049;-83
2022/09/13 00:19:01;;;;;;;7.72;5.50;;;;;;;10.16;100.00;98154.38;2586530;28;20141;-83
2022/09/13 00:20:17;;;;;;;6.70;5.18;;;;;;;10.15;100.00;98157.03;2586482;28;20144;-86
2022/09/13 00:21:32;;;;;;;7.13;5.15;;;;;;;10.07;100.00;98156.44;2586130;28;20069;-84
2022/09/13 00:22:48;;;;;;;7.28;5.25;;;;;;;10.06;100.00;98152.06;2585836;28;20445;-84
2022/09/13 00:24:04;;;;;;;7.00;5.07;;;;;;;9.95;100.00;98155.91;2586475;28;20492;-84
2022/09/13 00:25:20;;;;;;;6.72;5.15;;;;;;;10.03;100.00;98158.28;2585667;28;20467;-84
2022/09/13 00:26:36;;;;;;;7.55;5.63;;;;;;;9.99;100.00;98154.88;2586100;28;20620;-83
2022/09/13 00:27:51;;;;;;;6.45;5.28;;;;;;;9.92;100.00;98155.13;2586112;28;20046;-83
2022/09/13 00:29:06;;;;;;;7.53;5.15;;;;;;;10.07;100.00;98151.19;2586315;28;20057;-84
2022/09/13 00:30:22;;;;;;;9.02;5.05;;;;;;;10.14;100.00;98157.94;2585728;28;20545;-84
2022/09/13 00:31:38;;;;;;;7.40;5.53;;;;;;;10.19;100.00;98153.41;2586106;28;20149;-85
2022/09/13 00:32:54;;;;;;;8.63;5.40;;;;;;;10.13;100.00;98144.03;2586202;28;20050;-84
2022/09/13 00:34:10;;;;;;;8.75;5.82;;;;;;;10.17;100.00;98144.75;2586092;28;20060;-83
2022/09/13 00:35:25;;;;;;;8.75;5.82;;;;;;;10.20;100.00;98143.81;2585745;28;20053;-84
2022/09/13 00:36:41;;;;;;;6.85;5.43;;;;;;;10.18;100.00;98143.84;2586639;28;20060;-84
2022/09/13 00:37:58;;;;;;;6.63;4.97;;;;;;;10.26;100.00;98146.22;2585738;28;20104;-84
2022/09/13 00:39:14;;;;;;;6.70;5.18;;;;;;;10.22;100.00;98147.22;2585718;28;20050;-83
2022/09/13 00:40:29;;;;;;;6.28;5.15;;;;;;;10.33;100.00;98139.91;2586094;28;20053;-84
2022/09/13 00:41:45;;;;;;;7.07;5.35;;;;;;;10.35;100.00;98145.94;2586026;28;20045;-83
2022/09/13 00:43:01;;;;;;;6.78;5.13;;;;;;;10.27;100.00;98143.56;2586144;28;20573;-83
2022/09/13 00:44:54;;;;;;;7.60;5.28;;;;;;;10.28;100.00;98144.44;2586069;28;20399;-84
2022/09/13 00:46:15;;;;;;;6.65;4.63;;;;;;;10.29;100.00;98141.75;2585929;28;20072;-84
2022/09/13 00:47:34;;;;;;;7.93;4.93;;;;;;;10.38;100.00;98138.00;2585973;28;20488;-84
2022/09/13 00:48:54;;;;;;;6.05;4.70;;;;;;;10.44;100.00;98134.34;2585842;28;20474;-84
2022/09/13 00:50:24;;;;;;;7.30;5.10;;;;;;;10.36;100.00;98128.50;2586283;28;20416;-84
2022/09/13 00:51:44;;;;;;;8.93;5.43;;;;;;;10.44;100.00;98126.50;2585720;28;20053;-83
2022/09/13 00:53:10;;;;;;;9.45;5.43;;;;;;;10.56;100.00;98127.88;2586238;28;20054;-83
2022/09/13 00:54:32;;;;;;;6.40;4.75;;;;;;;10.68;100.00;98126.59;2585681;28;20405;-83
2022/09/13 00:55:54;;;;;;;12.02;4.75;;;;;;;10.68;100.00;98119.59;2586297;28;20049;-83
2022/09/13 00:57:12;;;;;;;16.10;5.30;;;;;;;10.77;100.00;98126.31;2585952;28;20064;-84
2022/09/13 00:58:33;;;;;;;13.65;5.78;;;;;;;10.66;100.00;98125.81;2586290;28;20513;-86
2022/09/13 01:00:03;;;;;;;58.00;7.85;;;;;;;10.68;100.00;98130.06;2585945;28;20417;-83
2022/09/13 01:01:24;;;;;;;26.58;5.13;;;;;;;10.64;100.00;98125.00;2585768;28;20049;-84
2022/09/13 01:02:48;;;;;;;29.70;5.20;;;;;;;10.67;100.00;98124.91;2586189;28;20193;-84
2022/09/13 01:04:04;;;;;;;79.55;6.63;;;;;;;10.45;100.00;98125.59;2585910;28;20058;-85
2022/09/13 01:05:26;;;;;;;41.38;5.40;;;;;;;10.54;100.00;98127.91;2585555;28;20496;-84
2022/09/13 01:06:42;;;;;;;85.30;6.90;;;;;;;10.55;100.00;98119.16;2585880;28;20616;-84
2022/09/13 01:07:59;;;;;;;90.95;6.50;;;;;;;10.63;100.00;98115.44;2585541;28;20492;-89
2022/09/13 01:09:14;;;;;;;41.33;5.65;;;;;;;10.63;100.00;98121.53;2585921;28;20057;-83
2022/09/13 01:10:34;;;;;;;80.22;6.60;;;;;;;10.55;100.00;98126.16;2585825;28;20409;-84
2022/09/13 01:12:30;;;;;;;73.07;7.53;;;;;;;10.29;100.00;98126.06;2585865;28;20054;-89
2022/09/13 01:13:47;;;;;;;73.03;6.65;;;;;;;10.50;100.00;98122.81;2563270;28;20057;-90
2022/09/13 01:15:04;;;;;;;40.67;6.35;;;;;;;10.59;100.00;98122.53;2585669;28;20539;-83
2022/09/13 01:16:19;;;;;;;63.50;7.63;;;;;;;10.39;100.00;98118.75;2584547;28;20050;-84
2022/09/13 01:17:35;;;;;;;59.20;6.78;;;;;;;10.51;100.00;98121.91;2585493;28;20850;-87
2022/09/13 01:18:51;;;;;;;54.63;6.90;;;;;;;10.54;100.00;98119.19;2585510;28;20049;-83
2022/09/13 01:20:08;;;;;;;88.55;8.68;;;;;;;10.48;100.00;98125.50;2585877;28;20068;-84
2022/09/13 01:21:41;;;;;;;79.20;7.50;;;;;;;10.46;100.00;98122.06;2585265;28;20050;-83
2022/09/13 01:23:27;;;;;;;105.43;7.93;;;;;;;10.36;100.00;98116.25;2585303;28;20062;-84
2022/09/13 01:24:49;;;;;;;121.40;10.98;;;;;;;10.41;100.00;98110.91;2585757;28;20050;-84
2022/09/13 01:26:42;;;;;;;141.57;9.43;;;;;;;10.40;100.00;98109.16;2584993;28;20060;-84
2022/09/13 01:28:16;;;;;;;119.75;11.95;;;;;;;10.39;100.00;98107.44;2585948;28;20508;-84
2022/09/13 01:30:11;;;;;;;221.68;13.55;;;;;;;10.41;100.00;98103.94;2584965;28;21230;-84
2022/09/13 01:31:34;;;;;;;141.30;10.30;;;;;;;10.38;100.00;98111.81;2585121;28;20429;-84
2022/09/13 01:33:11;;;;;;;96.68;8.90;;;;;;;10.34;100.00;98107.59;2585706;28;20100;-84
2022/09/13 01:34:58;;;;;;;154.95;13.30;;;;;;;10.45;100.00;98108.16;2584960;28;20481;-84
2022/09/13 01:36:38;;;;;;;187.15;11.05;;;;;;;10.52;100.00;98103.56;2585162;28;20057;-84
2022/09/13 01:38:18;;;;;;;62.67;6.50;;;;;;;10.45;100.00;98104.66;2585532;28;20156;-83
2022/09/13 01:40:00;;;;;;;81.35;10.20;;;;;;;10.66;100.00;98103.09;2584433;28;20065;-89
2022/09/13 01:41:25;;;;;;;37.67;6.28;;;;;;;10.59;100.00;98105.06;2585338;28;20050;-84
2022/09/13 01:42:52;;;;;;;64.30;7.05;;;;;;;10.60;100.00;98103.31;2585063;28;20080;-86
2022/09/13 01:44:24;;;;;;;27.67;6.78;;;;;;;10.70;100.00;98106.47;2585303;28;20050;-84
2022/09/13 01:46:09;;;;;;;110.63;10.02;;;;;;;10.80;100.00;98093.91;2585648;28;20157;-84
2022/09/13 01:47:42;;;;;;;59.42;7.13;;;;;;;10.68;100.00;98103.03;2584844;28;20057;-85
2022/09/13 01:49:06;;;;;;;53.08;7.80;;;;;;;10.67;100.00;98096.09;2585464;28;21090;-86
2022/09/13 01:50:46;;;;;;;65.43;7.00;;;;;;;10.67;100.00;98091.69;2585434;28;20067;-83
2022/09/13 01:52:21;;;;;;;77.15;8.20;;;;;;;10.63;100.00;98084.03;2585717;28;20080;-83
2022/09/13 01:53:55;;;;;;;153.23;10.52;;;;;;;10.84;100.00;98085.88;2585791;28;20048;-84
2022/09/13 01:55:23;;;;;;;111.35;7.97;;;;;;;10.39;100.00;98091.75;2585435;28;20062;-84
2022/09/13 01:56:43;;;;;;;66.43;6.25;;;;;;;10.35;100.00;98088.38;2585597;28;20584;-84
2022/09/13 01:58:24;;;;;;;103.32;7.95;;;;;;;10.44;100.00;98088.13;2585277;28;20045;-84
2022/09/13 01:59:56;;;;;;;81.97;7.30;;;;;;;10.50;100.00;98089.69;2545961;28;20083;-84
2022/09/13 02:01:17;;;;;;;82.22;10.52;;;;;;;10.40;100.00;98089.06;2585030;28;20049;-84
2022/09/13 02:02:39;;;;;;;76.93;7.97;;;;;;;10.49;100.00;98085.34;2585346;28;20069;-84
2022/09/13 02:04:07;;;;;;;26.70;5.75;;;;;;;10.34;100.00;98088.41;2585367;28;20100;-84
2022/09/13 02:05:49;;;;;;;29.02;5.75;;;;;;;10.30;100.00;98091.13;2585261;28;20061;-84
2022/09/13 02:07:20;;;;;;;23.77;5.72;;;;;;;10.37;100.00;98088.34;2585376;28;20053;-84
2022/09/13 02:08:56;;;;;;;51.72;6.38;;;;;;;10.36;100.00;98086.63;2584627;28;20587;-84
2022/09/13 02:10:25;;;;;;;54.30;7.68;;;;;;;10.38;100.00;98090.03;2585559;28;20049;-84
2022/09/13 02:11:44;;;;;;;47.08;6.18;;;;;;;10.37;100.00;98083.09;2585442;28;20052;-89
2022/09/13 02:13:04;;;;;;;26.75;5.45;;;;;;;10.36;100.00;98082.22;2575605;28;20055;-83
2022/09/13 02:14:25;;;;;;;22.90;5.88;;;;;;;10.34;100.00;98083.19;2581592;28;20054;-84
2022/09/13 02:15:46;;;;;;;15.10;5.65;;;;;;;10.34;100.00;98077.94;2585834;28;20050;-84
2022/09/13 02:17:06;;;;;;;19.48;6.20;;;;;;;10.36;100.00;98077.00;2584963;28;20073;-84
2022/09/13 02:18:32;;;;;;;51.10;8.80;;;;;;;10.48;100.00;98074.91;2585036;28;20053;-86
2022/09/13 02:20:00;;;;;;;25.90;6.22;;;;;;;10.32;100.00;98081.47;2570672;28;20054;-84
2022/09/13 02:21:30;;;;;;;20.50;5.90;;;;;;;10.34;100.00;98067.47;2577836;28;20049;-84
2022/09/13 02:22:50;;;;;;;30.55;5.80;;;;;;;10.27;100.00;98070.31;2585687;28;20057;-85
2022/09/13 02:24:09;;;;;;;29.83;6.65;;;;;;;10.29;100.00;98068.50;2584768;28;20562;-84
2022/09/13 02:25:29;;;;;;;28.10;6.68;;;;;;;10.18;100.00;98070.59;2584955;28;20057;-83
2022/09/13 02:26:46;;;;;;;44.78;8.85;;;;;;;10.28;100.00;98065.94;2585082;28;20181;-87
2022/09/13 02:28:07;;;;;;;28.50;6.18;;;;;;;10.25;100.00;98069.50;2585018;28;20260;-83
2022/09/13 02:29:27;;;;;;;31.92;5.72;;;;;;;10.27;100.00;98062.47;2584636;28;20068;-85
2022/09/13 02:30:48;;;;;;;24.15;6.22;;;;;;;10.23;100.00;98071.31;2585288;28;20070;-84
2022/09/13 02:32:19;;;;;;;83.20;7.55;;;;;;;10.11;100.00;98067.31;2584882;28;20057;-84
2022/09/13 02:33:52;;;;;;;102.50;7.60;;;;;;;10.17;100.00;98072.38;2585348;28;20859;-86
2022/09/13 02:35:19;;;;;;;101.55;7.18;;;;;;;10.20;100.00;98066.19;2584167;28;20069;-88
2022/09/13 02:36:39;;;;;;;74.15;6.90;;;;;;;10.19;100.00;98069.69;2585261;28;20521;-88
2022/09/13 02:38:03;;;;;;;85.07;7.15;;;;;;;10.09;100.00;98076.16;2585241;28;20411;-84
2022/09/13 02:39:23;;;;;;;48.30;7.05;;;;;;;10.05;100.00;98072.75;2585023;28;20975;-87
2022/09/13 02:40:45;;;;;;;20.40;5.47;;;;;;;9.97;100.00;98074.75;2584764;28;20048;-86
2022/09/13 02:42:10;;;;;;;104.60;9.75;;;;;;;9.78;100.00;98077.09;2585289;28;20123;-85
2022/09/13 02:43:38;;;;;;;126.55;11.25;;;;;;;10.01;100.00;98074.63;2584685;28;20056;-86
2022/09/13 02:44:57;;;;;;;170.05;17.05;;;;;;;10.08;100.00;98069.22;2585261;28;20046;-87
2022/09/13 02:46:51;;;;;;;213.95;15.30;;;;;;;10.04;100.00;98065.81;2583791;28;20081;-85
2022/09/13 02:48:40;;;;;;;196.70;12.68;;;;;;;9.99;100.00;98055.50;2584725;28;20104;-85
2022/09/13 02:50:01;;;;;;;175.55;10.13;;;;;;;10.05;100.00;98062.31;2579440;28;20053;-89
2022/09/13 02:51:27;;;;;;;140.65;10.25;;;;;;;10.01;100.00;98053.69;2584605;28;20052;-84
2022/09/13 02:53:07;;;;;;;282.60;17.42;;;;;;;9.93;100.00;98062.69;2585255;28;20049;-84
2022/09/13 02:54:46;;;;;;;117.70;14.15;;;;;;;9.95;100.00;98056.53;2584878;28;20472;-84
2022/09/13 02:56:18;;;;;;;36.88;6.72;;;;;;;9.98;100.00;98055.53;2585127;28;20077;-87
2022/09/13 02:57:45;;;;;;;72.38;8.43;;;;;;;10.01;100.00;98053.69;2585131;28;20088;-85
2022/09/13 02:59:15;;;;;;;68.13;7.32;;;;;;;9.85;100.00;98058.56;2584746;28;20049;-84
2022/09/13 03:00:31;;;;;;;65.55;9.10;;;;;;;9.61;100.00;98063.66;2585001;28;20408;-88
2022/09/13 03:01:55;;;;;;;22.63;5.25;;;;;;;9.50;100.00;98065.72;2584561;28;20046;-87
2022/09/13 03:03:13;;;;;;;46.10;6.15;;;;;;;9.57;100.00;98064.66;2585099;28;20485;-88
2022/09/13 03:04:29;;;;;;;12.57;4.53;;;;;;;9.50;100.00;98067.47;2584873;28;20508;-85
2022/09/13 03:05:44;;;;;;;29.92;5.25;;;;;;;9.44;100.00;98063.31;2585454;28;20079;-88
2022/09/13 03:07:03;;;;;;;69.80;6.80;;;;;;;9.56;100.00;98064.69;2584581;28;20108;-86
2022/09/13 03:08:20;;;;;;;57.88;6.25;;;;;;;9.58;100.00;98070.72;2585040;28;20054;-85
2022/09/13 03:09:40;;;;;;;67.70;7.78;;;;;;;9.64;100.00;98067.94;2584401;28;20474;-85
2022/09/13 03:11:23;;;;;;;36.95;7.55;;;;;;;9.32;100.00;98067.97;2585267;28;20081;-88
2022/09/13 03:12:51;;;;;;;30.95;6.13;;;;;;;9.44;100.00;98066.75;2585804;28;20052;-84
2022/09/13 03:14:30;;;;;;;26.65;8.07;;;;;;;9.50;100.00;98070.06;2585034;28;20050;-86
2022/09/13 03:16:23;;;;;;;67.25;6.43;;;;;;;9.52;100.00;98060.47;2578148;28;20616;-88
2022/09/13 03:17:51;;;;;;;76.68;8.88;;;;;;;9.53;100.00;98064.78;2558459;28;20078;-85
2022/09/13 03:19:47;;;;;;;98.03;8.68;;;;;;;9.55;100.00;98062.97;2585385;28;20061;-85
2022/09/13 03:21:22;;;;;;;19.65;6.00;;;;;;;9.47;100.00;98056.19;2584648;28;20054;-89
2022/09/13 03:22:40;;;;;;;100.95;8.38;;;;;;;9.40;100.00;98057.31;2583841;28;20046;-85
2022/09/13 03:24:17;;;;;;;113.85;10.85;;;;;;;9.38;100.00;98064.34;2584046;28;20902;-84
2022/09/13 03:25:58;;;;;;;139.57;10.68;;;;;;;9.39;100.00;98058.19;2584466;28;20054;-85
2022/09/13 03:27:51;;;;;;;30.58;5.57;;;;;;;9.24;100.00;98069.09;2584562;28;20046;-89
2022/09/13 03:29:49;;;;;;;114.00;8.95;;;;;;;9.45;100.00;98075.47;2584801;28;20056;-87
2022/09/13 03:31:34;;;;;;;33.63;6.53;;;;;;;9.65;100.00;98079.22;2582710;28;20057;-84
2022/09/13 03:33:44;;;;;;;111.10;8.85;;;;;;;9.59;100.00;98075.91;2584389;28;20073;-85
2022/09/13 03:35:30;;;;;;;102.40;7.40;;;;;;;9.61;100.00;98075.84;2544256;29;20857;-88
2022/09/13 03:36:55;;;;;;;77.55;6.80;;;;;;;9.51;100.00;98072.66;2546764;28;20064;-85
2022/09/13 03:38:23;;;;;;;79.65;8.13;;;;;;;9.66;100.00;98073.97;2585212;28;20053;-85
2022/09/13 03:39:47;;;;;;;96.32;9.85;;;;;;;9.80;100.00;98070.06;2584371;28;20054;-85
2022/09/13 03:41:10;;;;;;;96.20;10.20;;;;;;;9.81;100.00;98069.16;2584190;28;20058;-86
2022/09/13 03:43:00;;;;;;;63.33;8.98;;;;;;;9.74;100.00;98077.19;2584319;28;20046;-84
2022/09/13 03:44:20;;;;;;;75.45;8.20;;;;;;;9.80;100.00;98067.47;2583489;28;20053;-85
2022/09/13 03:45:42;;;;;;;36.33;7.07;;;;;;;9.77;100.00;98078.00;2582722;28;20046;-86
2022/09/13 03:47:02;;;;;;;28.80;7.47;;;;;;;9.67;100.00;98077.41;2584156;28;20489;-85
2022/09/13 03:48:18;;;;;;;30.10;7.53;;;;;;;9.72;100.00;98068.53;2584317;28;20046;-90
2022/09/13 03:49:38;;;;;;;122.72;10.07;;;;;;;9.77;100.00;98073.63;2583955;28;20049;-88
2022/09/13 03:50:54;;;;;;;79.40;10.70;;;;;;;9.80;100.00;98065.69;2584283;28;20485;-85
2022/09/13 03:52:11;;;;;;;37.50;8.23;;;;;;;9.86;100.00;98067.25;2583617;28;20050;-87
2022/09/13 03:53:30;;;;;;;112.00;9.82;;;;;;;9.89;100.00;98069.78;2584527;28;20173;-87
2022/09/13 03:54:45;;;;;;;81.30;8.88;;;;;;;9.90;100.00;98074.09;2583677;28;20405;-87
2022/09/13 03:56:11;;;;;;;71.13;8.57;;;;;;;9.92;100.00;98079.28;2584239;28;20053;-85
2022/09/13 03:57:27;;;;;;;111.90;11.20;;;;;;;9.86;100.00;98081.19;2584417;28;20054;-86
2022/09/13 03:58:43;;;;;;;20.70;6.70;;;;;;;9.89;100.00;98073.25;2586770;28;20053;-86
2022/09/13 03:59:58;;;;;;;63.95;9.18;;;;;;;9.90;100.00;98074.09;2586155;28;20050;-86
2022/09/13 04:01:21;;;;;;;91.75;10.35;;;;;;;9.97;100.00;98074.75;2585099;28;20099;-86
2022/09/13 04:02:36;;;;;;;83.40;10.60;;;;;;;9.99;100.00;98065.13;2585771;28;20056;-86
2022/09/13 04:03:52;;;;;;;35.05;7.40;;;;;;;10.01;100.00;98066.78;2586770;28;20539;-86
2022/09/13 04:05:08;;;;;;;119.93;12.57;;;;;;;10.03;100.00;98064.13;2585966;28;20057;-86
2022/09/13 04:06:24;;;;;;;98.28;10.65;;;;;;;10.04;100.00;98063.22;2586151;28;20400;-85
2022/09/13 04:07:39;;;;;;;121.53;10.38;;;;;;;9.98;100.00;98060.78;2585176;28;20511;-87
2022/09/13 04:08:55;;;;;;;154.77;11.90;;;;;;;9.94;100.00;98064.41;2586515;28;20076;-85
2022/09/13 04:10:11;;;;;;;156.50;12.57;;;;;;;9.86;100.00;98065.50;2575249;28;20386;-86
2022/09/13 04:11:27;;;;;;;130.40;9.98;;;;;;;9.88;100.00;98075.91;2580672;28;20045;-85
2022/09/13 04:12:43;;;;;;;99.07;11.35;;;;;;;9.86;100.00;98069.88;2585819;28;20093;-84
2022/09/13 04:13:58;;;;;;;125.32;9.48;;;;;;;10.02;100.00;98067.63;2586265;28;20061;-85
2022/09/13 04:15:15;;;;;;;24.00;6.18;;;;;;;9.95;100.00;98064.38;2586453;28;20459;-84
2022/09/13 04:16:30;;;;;;;64.38;7.82;;;;;;;10.09;100.00;98058.69;2585933;28;20050;-86
2022/09/13 04:17:46;;;;;;;70.88;8.20;;;;;;;10.08;100.00;98053.50;2586192;28;20084;-88
2022/09/13 04:19:02;;;;;;;18.75;6.85;;;;;;;9.95;100.00;98056.53;2585829;28;20107;-86
2022/09/13 04:20:18;;;;;;;17.67;7.15;;;;;;;9.92;100.00;98061.84;2586422;28;20477;-85
2022/09/13 04:21:34;;;;;;;83.25;8.77;;;;;;;10.06;100.00;98052.69;2586068;28;20053;-85
2022/09/13 04:22:54;;;;;;;55.30;8.05;;;;;;;10.10;100.00;98043.84;2586697;28;20060;-85
2022/09/13 04:24:10;;;;;;;30.25;8.20;;;;;;;10.01;100.00;98040.63;2586121;28;20108;-84
2022/09/13 04:25:25;;;;;;;15.05;8.35;;;;;;;10.16;100.00;98047.13;2586106;28;20144;-85
2022/09/13 04:26:41;;;;;;;17.42;8.10;;;;;;;10.00;100.00;98044.13;2585948;28;20046;-84
2022/09/13 04:27:58;;;;;;;12.45;7.97;;;;;;;10.07;100.00;98042.19;2586556;28;20407;-84
2022/09/13 04:29:14;;;;;;;10.50;7.25;;;;;;;10.01;100.00;98042.41;2585879;28;20050;-85
2022/09/13 04:30:29;;;;;;;13.23;6.60;;;;;;;10.09;100.00;98044.75;2586326;28;20071;-84
2022/09/13 04:31:45;;;;;;;12.45;6.43;;;;;;;10.13;100.00;98034.16;2585121;28;20135;-85
2022/09/13 04:33:01;;;;;;;26.65;6.72;;;;;;;9.95;100.00;98043.44;2584957;28;20050;-86
2022/09/13 04:34:21;;;;;;;20.58;7.25;;;;;;;9.86;100.00;98041.97;2584962;28;20049;-86
2022/09/13 04:35:38;;;;;;;22.30;7.35;;;;;;;9.82;100.00;98044.72;2585947;28;20065;-85
2022/09/13 04:36:53;;;;;;;13.18;7.20;;;;;;;9.61;100.00;98037.50;2585990;28;20405;-87
2022/09/13 04:38:09;;;;;;;18.38;7.25;;;;;;;9.70;100.00;98048.56;2586664;28;20486;-90
2022/09/13 04:39:25;;;;;;;24.92;7.70;;;;;;;9.83;100.00;98035.97;2585531;28;20096;-85
2022/09/13 04:40:40;;;;;;;68.05;9.98;;;;;;;9.84;100.00;98040.31;2586172;28;20157;-87
2022/09/13 04:41:56;;;;;;;28.02;7.15;;;;;;;9.79;100.00;98044.84;2584843;28;20069;-83
2022/09/13 04:43:12;;;;;;;36.67;8.40;;;;;;;9.82;100.00;98036.88;2586501;28;20085;-85
2022/09/13 04:44:28;;;;;;;35.92;8.18;;;;;;;9.89;100.00;98035.78;2585883;28;20093;-85
2022/09/13 04:45:45;;;;;;;22.63;7.43;;;;;;;9.99;100.00;98037.19;2585410;28;20049;-86
2022/09/13 04:47:00;;;;;;;22.98;7.35;;;;;;;10.00;100.00;98036.28;2587011;28;20049;-91
2022/09/13 04:48:16;;;;;;;18.83;7.10;;;;;;;9.91;100.00;98033.97;2586011;28;20053;-86
2022/09/13 04:49:32;;;;;;;11.45;6.90;;;;;;;10.04;100.00;98032.66;2586839;28;20060;-85
2022/09/13 04:50:48;;;;;;;9.85;6.43;;;;;;;10.03;100.00;98036.19;2585876;28;20092;-85
2022/09/13 04:52:03;;;;;;;10.45;6.22;;;;;;;9.87;100.00;98028.00;2575412;28;20914;-84
2022/09/13 04:53:19;;;;;;;13.77;6.75;;;;;;;9.84;100.00;98024.63;2579357;28;20054;-89
2022/09/13 04:54:34;;;;;;;15.95;6.43;;;;;;;9.82;100.00;98029.03;2586609;28;20054;-86
2022/09/13 04:55:50;;;;;;;42.67;7.25;;;;;;;9.84;100.00;98024.63;2585653;28;20085;-86
2022/09/13 04:57:05;;;;;;;8.93;6.63;;;;;;;9.85;100.00;98024.59;2586534;28;20050;-86
2022/09/13 04:58:21;;;;;;;9.98;6.10;;;;;;;9.83;100.00;98033.38;2586069;28;20106;-87
2022/09/13 04:59:37;;;;;;;8.60;5.68;;;;;;;9.90;100.00;98024.41;2585735;28;20046;-86
2022/09/13 05:00:55;;;;;;;18.55;6.53;;;;;;;9.92;100.00;98027.84;2584832;28;20134;-85
2022/09/13 05:02:11;;;;;;;9.55;5.70;;;;;;;9.94;100.00;98031.28;2585737;28;20050;-85
2022/09/13 05:03:30;;;;;;;15.50;5.97;;;;;;;10.05;100.00;98025.69;2585567;28;20536;-86
2022/09/13 05:04:45;;;;;;;10.05;5.53;;;;;;;10.01;100.00;98027.53;2586050;28;20042;-85
2022/09/13 05:06:19;;;;;;;10.35;5.60;;;;;;;9.97;100.00;98033.78;2585469;28;20045;-86
2022/09/13 05:07:35;;;;;;;9.35;5.60;;;;;;;9.97;100.00;98035.53;2586280;28;20045;-86
2022/09/13 05:08:54;;;;;;;11.73;5.53;;;;;;;10.06;100.00;98034.38;2585569;28;20053;-86
2022/09/13 05:10:09;;;;;;;10.65;5.68;;;;;;;10.22;100.00;98033.00;2581410;28;20080;-85
2022/09/13 05:11:26;;;;;;;7.72;5.70;;;;;;;10.24;100.00;98031.16;2579348;28;20520;-85
2022/09/13 05:12:42;;;;;;;10.15;5.50;;;;;;;10.15;100.00;98026.22;2586216;28;20496;-88
2022/09/13 05:13:59;;;;;;;8.90;5.15;;;;;;;10.07;100.00;98033.50;2584848;28;20452;-89
2022/09/13 05:15:14;;;;;;;7.07;5.10;;;;;;;10.04;100.00;98032.66;2585691;28;20042;-85
2022/09/13 05:16:31;;;;;;;8.45;5.03;;;;;;;10.06;100.00;98040.47;2584095;28;20393;-87
2022/09/13 05:17:47;;;;;;;11.55;5.60;;;;;;;10.12;100.00;98039.41;2583536;28;20093;-87
2022/09/13 05:19:02;;;;;;;17.00;5.78;;;;;;;10.14;100.00;98040.22;2580842;28;20046;-86
2022/09/13 05:20:18;;;;;;;11.25;5.75;;;;;;;10.16;100.00;98051.50;2580862;28;20053;-84
2022/09/13 05:21:34;;;;;;;7.90;5.50;;;;;;;10.07;100.00;98059.66;2583489;28;20408;-85
2022/09/13 05:22:49;;;;;;;12.15;6.43;;;;;;;10.06;100.00;98056.16;2581362;28;20054;-85
2022/09/13 05:24:05;;;;;;;13.52;5.63;;;;;;;10.25;100.00;98048.56;2581926;28;20060;-88
2022/09/13 05:25:20;;;;;;;65.60;7.40;;;;;;;10.32;100.00;98057.09;2580423;28;20046;-86
2022/09/13 05:26:36;;;;;;;118.07;9.40;;;;;;;10.51;100.00;98059.97;2580112;28;20072;-86
2022/09/13 05:27:52;;;;;;;62.95;8.02;;;;;;;10.41;100.00;98069.03;2580807;28;20497;-87
2022/09/13 05:29:07;;;;;;;85.30;8.75;;;;;;;10.49;100.00;98067.03;2580763;28;20056;-87
2022/09/13 05:30:23;;;;;;;58.83;7.80;;;;;;;10.57;100.00;98066.75;2583120;28;20050;-86
2022/09/13 05:31:41;;;;;;;69.55;8.95;;;;;;;10.34;100.00;98057.00;2585118;28;20046;-85
2022/09/13 05:32:57;;;;;;;98.18;9.07;;;;;;;10.36;100.00;98063.06;2584332;28;20081;-85
2022/09/13 05:34:16;;;;;;;90.65;8.60;;;;;;;10.24;100.00;98070.41;2581873;28;20065;-86
2022/09/13 05:35:32;;;;;;;71.80;8.18;;;;;;;10.17;100.00;98066.28;2580925;28;20052;-86
2022/09/13 05:36:49;;;;;;;42.47;6.07;;;;;;;10.17;100.00;98063.66;2582619;28;20046;-90
2022/09/13 05:38:05;;;;;;;55.42;7.28;;;;;;;10.30;100.00;98066.75;2584614;28;20050;-86
2022/09/13 05:39:21;;;;;;;52.00;7.80;;;;;;;10.38;100.00;98063.88;2582070;28;20549;-85
2022/09/13 05:40:37;;;;;;;98.43;8.98;;;;;;;10.46;100.00;98072.34;2575637;28;20902;-90
2022/09/13 05:41:52;;;;;;;98.80;8.90;;;;;;;10.40;100.00;98064.69;2573803;28;20517;-91
2022/09/13 05:43:08;;;;;;;51.92;7.53;;;;;;;10.44;100.00;98066.31;2573220;28;20046;-92
2022/09/13 05:44:23;;;;;;;88.75;9.95;;;;;;;10.69;100.00;98063.72;2574762;28;20077;-84
2022/09/13 05:45:39;;;;;;;162.23;12.02;;;;;;;10.67;100.00;98062.06;2573404;28;20054;-87
2022/09/13 05:46:55;;;;;;;226.80;19.42;;;;;;;10.77;100.00;98062.59;2572516;28;20470;-84
2022/09/13 05:48:10;;;;;;;118.57;11.93;;;;;;;10.68;100.00;98066.38;2575316;28;20046;-84
2022/09/13 05:49:26;;;;;;;168.20;13.60;;;;;;;10.57;100.00;98067.59;2575567;28;20061;-85
2022/09/13 05:50:42;;;;;;;139.43;11.20;;;;;;;10.58;100.00;98068.47;2586179;28;20050;-84
2022/09/13 05:51:57;;;;;;;116.35;10.65;;;;;;;10.61;100.00;98065.75;2585611;28;20113;-88
2022/09/13 05:53:13;;;;;;;165.35;14.75;;;;;;;10.59;100.00;98064.94;2586082;28;20054;-84
2022/09/13 05:54:29;;;;;;;115.95;8.73;;;;;;;10.23;100.00;98066.09;2585665;28;20606;-86
2022/09/13 05:55:44;;;;;;;80.32;8.68;;;;;;;10.33;100.00;98066.63;2585849;28;20077;-84
2022/09/13 05:57:00;;;;;;;39.40;7.32;;;;;;;10.20;100.00;98063.59;2585394;28;20049;-84
2022/09/13 05:58:15;;;;;;;42.92;6.50;;;;;;;10.32;100.00;98062.31;2586074;28;20467;-84
2022/09/13 05:59:31;;;;;;;88.25;8.77;;;;;;;10.54;100.00;98075.56;2585641;28;20500;-84
2022/09/13 06:00:55;;;;;;;58.78;7.72;;;;;;;10.42;100.00;98061.13;2585831;28;20053;-84
2022/09/13 06:02:10;;;;;;;68.45;9.13;;;;;;;10.56;100.00;98060.66;2584906;28;20060;-84
2022/09/13 06:03:26;;;;;;;57.10;7.78;;;;;;;10.57;100.00;98054.50;2584747;28;20057;-84
2022/09/13 06:04:42;;;;;;;100.88;10.68;;;;;;;10.72;100.00;98052.28;2585070;28;20057;-85
2022/09/13 06:05:58;;;;;;;56.75;7.57;;;;;;;10.68;100.00;98051.50;2585882;28;20050;-84
2022/09/13 06:07:13;;;;;;;94.10;8.13;;;;;;;10.60;100.00;98046.53;2585479;28;20088;-84
2022/09/13 06:08:30;;;;;;;54.38;7.45;;;;;;;10.64;100.00;98051.69;2585821;28;20046;-83
2022/09/13 06:09:46;;;;;;;115.68;9.57;;;;;;;10.87;100.00;98054.34;2584944;28;20046;-84
2022/09/13 06:11:07;;;;;;;41.35;6.85;;;;;;;10.97;100.00;98044.41;2585586;28;20424;-84
2022/09/13 06:12:23;;;;;;;53.00;6.30;;;;;;;10.82;100.00;98045.81;2585280;28;20417;-84
2022/09/13 06:13:40;;;;;;;94.55;9.98;;;;;;;11.00;100.00;98051.28;2585565;28;20089;-84
2022/09/13 06:14:56;;;;;;;10.35;6.00;;;;;;;11.01;100.00;98042.53;2585587;28;20062;-85
2022/09/13 06:16:12;;;;;;;22.42;6.95;;;;;;;10.96;100.00;98037.44;2585349;28;20519;-85
2022/09/13 06:17:28;;;;;;;68.75;7.97;;;;;;;11.01;100.00;98032.03;2585304;28;20061;-84
2022/09/13 06:18:44;;;;;;;16.13;6.40;;;;;;;11.05;100.00;98032.78;2585752;28;20503;-82